福岡空港の過去48時間の天気

福岡空港 (Fukuoka)

現在時刻: 10/23 15:24 JST (10/23 06:24 UTC) 以下の時間は現地時間です。

過去48時間のMETAR気象情報
時間 風向 風速(m/s) 視程 気温(℃) 湿度(%) 気圧(hPa) 天気現象
23 15:00 東北東 2 10km以上 23 61 1013
23 14:30 北東 3 10km以上 23 61 1013
23 14:00 北東 3 10km以上 23 61 1013
23 13:30 南南東 2 10km以上 23 61 1013
23 13:00 不定 2 10km以上 23 65 1013
23 12:30 不定 1 10km以上 23 65 1014
23 12:00 2 10km以上 22 69 1014
23 11:30 不定 1 10km以上 22 69 1014
23 11:00 東北東 2 10km以上 22 69 1014
23 10:30 不定 2 10km以上 21 73 1015
23 10:00 2 10km以上 21 73 1015
23 09:30 東北東 2 10km以上 20 78 1015
23 09:00 不定 1 10km以上 20 78 1016
23 08:30 不定 1 10km以上 19 83 1015
23 08:00 南南西 2 10km以上 18 88 1015
23 07:30 不定 1 10km以上 18 83 1014
23 07:00 南東 2 10km以上 17 88 1014
23 06:30 1 10km以上 17 88 1014
23 06:00 不定 1 10km以上 17 88 1014
23 05:30 不定 1 10km以上 17 94 1014
23 05:00 不定 1 10km以上 17 94 1014
23 04:30 南東 2 10km以上 17 94 1014
23 04:00 南南東 2 10km以上 17 88 1014
23 03:30 不定 1 10km以上 16 94 1014
22 06:30 不定 1 10km以上 14 94 1013
22 06:00 不定 1 10km以上 14 94 1014
22 05:30 南東 1 10km以上 14 94 1013
22 05:00 不定 1 10km以上 14 94 1013
22 04:30 不定 1 10km以上 14 94 1013
22 04:00 不定 1 10km以上 15 88 1013
22 03:30 1 10km以上 14 94 1013
22 03:00 南東 2 10km以上 15 88 1013
22 02:30 不定 1 10km以上 15 88 1013
22 02:00 不定 1 10km以上 15 88 1013
22 01:30 不定 1 10km以上 15 88 1013
22 01:00 不定 1 10km以上 15 94 1013
22 00:30 不定 1 10km以上 16 88 1013
22 00:00 1 10km以上 16 88 1013
21 23:30 1 10km以上 16 88 1013
21 23:00 南南東 2 10km以上 16 88 1014
21 22:30 南東 3 10km以上 16 88 1013
21 22:00 東北東 2 10km以上 16 88 1014
21 21:30 不定 1 10km以上 16 88 1014
21 21:00 不定 1 10km以上 17 83 1014
21 20:30 北北東 2 10km以上 18 77 1013
21 20:00 北北東 2 10km以上 18 77 1013
21 19:30 3 10km以上 19 73 1013
21 19:00 北北東 3 10km以上 19 73 1013
21 18:30 4 10km以上 20 68 1013
21 18:00 4 10km以上 20 68 1012
21 17:30 5 10km以上 21 60 1012
21 17:00 6 10km以上 22 57 1012
21 16:30 北北西 6 10km以上 22 60 1012
21 16:00 北北西 6 10km以上 23 57 1012
21 15:30 3 10km以上 23 57 1012
RJFF 230600Z 06004KT 010V090 9999 FEW025 SCT070 BKN100 23/15 Q1013 BECMG 02006KT
RJFF 230530Z 05005KT 360V080 9999 FEW025 SCT050 BKN090 23/15 Q1013 NOSIG RMK 1CU025 3SC050 5AC090 A2992
RJFF 230500Z 04006KT 360V060 9999 FEW025 BKN050 BKN/// 23/15 Q1013 NOSIG RMK 1CU025 5SC050 A2992
RJFF 230430Z 16003KT 100V250 9999 FEW025 BKN050 BKN/// 23/15 Q1013 NOSIG
RJFF 230400Z VRB03KT 9999 FEW025 BKN/// 23/16 Q1013 NOSIG RMK 1CU025 A2993
RJFF 230330Z VRB02KT 9999 FEW025 SCT180 BKN/// 23/16 Q1014 NOSIG RMK 1CU025 3AC180 A2995
RJFF 230300Z 17003KT 110V210 9999 FEW025 SCT180 BKN/// 22/16 Q1014 NOSIG
RJFF 230230Z VRB02KT 9999 FEW025 BKN/// 22/16 Q1014 NOSIG RMK 1CU025 A2996
RJFF 230200Z 07003KT 020V120 9999 FEW025 BKN/// 22/16 Q1014 NOSIG
RJFF 230130Z VRB03KT 9999 FEW025 BKN/// 21/16 Q1015 BECMG 12006KT
RJFF 230100Z 18004KT 130V230 9999 FEW025 BKN/// 21/16 Q1015 NOSIG RMK 1CU025 A2999
RJFF 230030Z 06004KT 310V090 9999 FEW025 SCT050 BKN/// 20/16 Q1015 BECMG FM0130 12005KT
RJFF 230000Z VRB02KT 9999 FEW025 BKN050 BKN/// 20/16 Q1016 BECMG FM0130 12005KT
RJFF 222330Z VRB02KT 9999 FEW025 BKN050 BKN/// 19/16 Q1015 NOSIG
RJFF 222300Z 21003KT 160V260 9999 FEW025 BKN170 BKN/// 18/16 Q1015 NOSIG RMK 1CU025 5AC170 A2998
RJFF 222230Z VRB02KT 9999 FEW025 SCT170 BKN/// 18/15 Q1014 NOSIG
RJFF 222200Z 14003KT 9999 FEW025 SCT050 BKN170 17/15 Q1014 NOSIG RMK 1CU025 3SC050 5AC170 A2997
RJFF 222130Z 17001KT 9999 FEW025 SCT050 BKN/// 17/15 Q1014 NOSIG RMK 1CU025 3SC050 A2996
RJFF 222100Z VRB02KT 9999 FEW040 BKN/// 17/15 Q1014 NOSIG RMK 1CU040 A2996
RJFF 222030Z AUTO VRB01KT 9999 FEW048 BKN060 BKN200 17/16 Q1014 NOSIG RMK A2996
RJFF 222000Z AUTO VRB02KT 9999 FEW048 BKN060 OVC210 17/16 Q1014 NOSIG RMK A2995
RJFF 221930Z AUTO 14003KT 9999 FEW048 BKN060 BKN210 17/16 Q1014 NOSIG RMK A2995
RJFF 221900Z AUTO 15003KT 9999 BKN048 BKN210 17/15 Q1014 NOSIG RMK A2995
RJFF 221830Z AUTO VRB01KT 9999 NSC 16/15 Q1014 NOSIG RMK A2995
RJFF 212130Z VRB01KT 9999 FEW035 SCT/// 14/13 Q1013 NOSIG
RJFF 212100Z VRB02KT 9999 FEW035 BKN/// 14/13 Q1014 NOSIG
RJFF 212030Z AUTO 13002KT 9999 NCD 14/13 Q1013 NOSIG RMK A2994
RJFF 212000Z AUTO VRB01KT 9999 NCD 14/13 Q1013 NOSIG RMK A2993
RJFF 211930Z AUTO VRB01KT 9999 NCD 14/13 Q1013 NOSIG RMK A2993
RJFF 211900Z AUTO VRB02KT 9999 NCD 15/13 Q1013 NOSIG RMK A2992
RJFF 211830Z AUTO 09001KT 9999 NCD 14/13 Q1013 NOSIG RMK A2992
RJFF 211800Z AUTO 14003KT 9999 NCD 15/13 Q1013 NOSIG RMK A2992
RJFF 211730Z AUTO VRB02KT 9999 NCD 15/13 Q1013 NOSIG RMK A2992
RJFF 211700Z AUTO VRB02KT 9999 NCD 15/13 Q1013 NOSIG RMK A2992
RJFF 211630Z AUTO VRB01KT 9999 NCD 15/13 Q1013 NOSIG RMK A2992
RJFF 211600Z AUTO VRB01KT 9999 NCD 15/14 Q1013 NOSIG RMK A2992
RJFF 211530Z AUTO VRB02KT 9999 NCD 16/14 Q1013 NOSIG RMK A2993
RJFF 211500Z AUTO 09002KT 9999 NCD 16/14 Q1013 NOSIG RMK A2993
RJFF 211430Z AUTO 08002KT 9999 NCD 16/14 Q1013 NOSIG RMK A2994
RJFF 211400Z AUTO 15003KT 9999 NCD 16/14 Q1014 NOSIG RMK A2994
RJFF 211330Z 14005KT 9999 FEW030 SCT/// 16/14 Q1013 NOSIG RMK 1CU030 A2994
RJFF 211300Z 06003KT 010V160 9999 FEW030 BKN/// 16/14 Q1014 NOSIG
RJFF 211230Z VRB02KT 9999 FEW030 BKN/// 16/14 Q1014 NOSIG
RJFF 211200Z VRB02KT 9999 FEW030 BKN/// 17/14 Q1014 NOSIG
RJFF 211130Z 02004KT 350V050 9999 FEW030 BKN/// 18/14 Q1013 NOSIG
RJFF 211100Z 02004KT 310V070 9999 FEW030 BKN/// 18/14 Q1013 NOSIG
RJFF 211030Z 36005KT 9999 FEW030 BKN/// 19/14 Q1013 NOSIG RMK 1CU030 A2993
RJFF 211000Z 03005KT 340V070 9999 FEW030 BKN/// 19/14 Q1013 NOSIG
RJFF 210930Z 36007KT 9999 FEW030 20/14 Q1013 NOSIG RMK 1CU030 A2992
RJFF 210900Z 36008KT 9999 FEW030 20/14 Q1012 NOSIG RMK 1CU030 A2991
RJFF 210830Z 36010KT 9999 FEW030 21/13 Q1012 NOSIG RMK 1CU030 A2990
RJFF 210800Z 35011KT 9999 FEW030 22/13 Q1012 NOSIG RMK 1CU030 A2990
RJFF 210730Z 34012KT 310V020 9999 FEW030 22/14 Q1012 NOSIG RMK 1CU030 A2989
RJFF 210700Z 34012KT 300V010 9999 FEW030 23/14 Q1012 NOSIG RMK 1CU030 A2989
RJFF 210630Z 01005KT 320V080 9999 FEW030 23/14 Q1012 NOSIG RMK 1CU030 A2989